Latest Weather Observations for Tidbinbilla

IDN60801

Issued at 7:22 pm EST Wednesday 12 August 2020 (issued every 10 minutes, with the page automatically refreshed every 10 minutes)

About weather observations | Map of weather stations | Latest weather observations for NSW | Other Formats
Station Details ID: 250069 Name: TIDBINBILLA (PCS) Lat: -35.46 Lon: 148.94 Height: 883.0 m

Portable automatic weather stations (PAWS) are operated by other organisations, such as Fire and Emergency Services, and are included here by agreement. Portable stations may be deployed to a location for a short period and their location may be subject to change without notice. Wind observations from these stations are provided from heights of either three (3) or ten (10) metres above ground level (AGL).

Data from the previous 72 hours. | See also: Recent months for locations in New South Wales
Date/Time
EST
Temp
°C
App
Temp
°C
Dew
Point
°C
Rel
Hum
%
Delta-T
°C
Wind Press
QNH
hPa
Press
MSL
hPa
Rain since
9am
mm
Dir  Spd
km/h
Gust
km/h
Spd
kts
Gust
kts
12/07:10pm 7.4 4.3 7.4 100 0.0 NNE 13 17 7 9 1014.0 - 0.8
12/07:00pm 7.5 4.4 7.4 99 0.0 NNE 13 15 7 8 1014.0 - 0.4
12/06:50pm 7.5 4.8 7.4 99 0.0 NNE 11 11 6 6 1013.9 - 0.2
12/06:40pm 7.6 5.3 7.4 99 0.1 NE 9 13 5 7 1013.8 - 0.2
12/06:30pm 7.6 5.7 7.5 99 0.0 NE 7 11 4 6 1013.6 - 0.2
12/06:20pm 7.6 5.9 7.5 99 0.0 NE 6 7 3 4 1013.5 - 0.0
12/06:10pm 7.6 6.2 7.4 99 0.1 ENE 4 6 2 3 1013.4 - 0.0
12/06:00pm 7.6 5.7 7.4 99 0.1 NE 7 9 4 5 1013.5 - 0.0
12/05:50pm 7.6 5.3 7.4 99 0.1 NNE 9 13 5 7 1013.5 - 0.0
12/05:40pm 7.7 4.6 7.3 97 0.2 NNE 13 15 7 8 1013.5 - 0.0
12/05:30pm 7.8 4.7 7.4 97 0.2 NNE 13 17 7 9 1013.3 - 0.0
12/05:20pm 8.0 4.9 7.4 96 0.3 NNE 13 17 7 9 1013.2 - 0.0
12/05:10pm 8.1 4.6 7.3 95 0.4 NNE 15 17 8 9 1013.2 - 0.0
12/05:00pm 8.3 5.2 7.3 93 0.5 NNE 13 15 7 8 1013.1 - 0.0
12/04:50pm 8.5 5.4 7.3 92 0.6 NNE 13 15 7 8 1013.1 - 0.0
12/04:40pm 8.7 6.0 7.3 91 0.7 NNE 11 13 6 7 1013.0 - 0.0
12/04:30pm 9.2 7.3 6.7 84 1.2 N 6 11 3 6 1013.1 - 0.0
12/04:20pm 9.2 7.7 7.0 86 1.1 N 4 4 2 2 1013.1 - 0.0
12/04:10pm 9.3 7.3 7.1 86 1.1 NNW 7 9 4 5 1013.1 - 0.0
12/04:00pm 9.5 7.5 7.1 85 1.2 N 7 11 4 6 1013.0 - 0.0
12/03:50pm 9.6 7.1 6.6 81 1.5 NW 9 13 5 7 1012.9 - 0.0
12/03:40pm 9.9 7.9 7.2 83 1.3 N 7 11 4 6 1012.9 - 0.0
12/03:30pm 10.0 7.8 6.4 78 1.8 NW 7 11 4 6 1012.9 - 0.0
12/03:20pm 10.3 8.6 7.5 83 1.4 NNW 6 9 3 5 1013.1 - 0.0
12/03:10pm 10.1 8.0 6.8 80 1.6 NW 7 11 4 6 1013.1 - 0.0
12/03:00pm 9.8 7.8 7.3 84 1.2 NNW 7 9 4 5 1013.1 - 0.0
12/02:50pm 9.7 7.9 7.9 88 0.9 NNW 7 7 4 4 1013.1 - 0.0
12/02:40pm 9.0 7.1 7.5 90 0.7 N 7 9 4 5 1013.2 - 0.0
12/02:30pm 9.0 6.8 7.8 92 0.6 N 9 11 5 6 1013.3 - 0.0
12/02:20pm 9.0 6.8 7.7 91 0.7 NNE 9 11 5 6 1013.4 - 0.0
12/02:10pm 9.5 6.8 7.5 87 1.0 NNW 11 13 6 7 1013.4 - 0.0
12/02:00pm 9.7 6.8 6.5 80 1.6 NW 11 13 6 7 1013.6 - 0.0
12/01:50pm 9.6 6.3 6.4 80 1.6 NW 13 17 7 9 1013.6 - 0.0
12/01:40pm 9.3 5.5 5.8 79 1.7 NW 15 19 8 10 1013.6 - 0.0
12/01:30pm 9.1 5.8 6.5 84 1.3 N 13 19 7 10 1013.7 - 0.0
12/01:20pm 8.3 5.7 6.1 86 1.1 N 9 13 5 7 1013.8 - 0.0
12/01:10pm 7.8 4.8 5.9 88 0.9 NNE 11 15 6 8 1013.9 - 0.0
12/01:00pm 8.0 5.0 6.1 88 0.9 NNE 11 15 6 8 1014.1 - 0.0
12/12:50pm 8.5 5.9 6.0 84 1.2 NNE 9 11 5 6 1014.2 - 0.0
12/12:40pm 8.6 6.4 6.0 84 1.3 N 7 11 4 6 1014.3 - 0.0
12/12:30pm 8.2 5.2 5.8 85 1.1 NNE 11 15 6 8 1014.4 - 0.0
12/12:20pm 8.3 5.6 5.6 83 1.3 NNE 9 15 5 8 1014.5 - 0.0
12/12:10pm 8.3 4.9 5.7 84 1.2 NNE 13 15 7 8 1014.8 - 0.0
12/12:00pm 8.5 5.1 5.7 82 1.3 NE 13 17 7 9 1015.0 - 0.0
12/11:50am 8.5 5.4 5.5 81 1.4 NNE 11 15 6 8 1015.3 - 0.0
12/11:40am 9.0 5.9 5.6 79 1.6 NNE 11 15 6 8 1015.3 - 0.0
12/11:30am 10.7 8.1 6.1 73 2.3 N 9 15 5 8 1015.4 - 0.0
12/11:20am 11.7 9.5 6.1 68 2.8 NNW 7 11 4 6 1015.6 - 0.0
12/11:10am 11.1 9.0 5.9 70 2.5 N 6 7 3 4 1015.7 - 0.0
12/11:00am 9.8 7.4 5.2 73 2.2 N 7 9 4 5 1016.1 - 0.0
12/10:50am 8.8 6.5 4.9 76 1.8 N 6 9 3 5 1016.2 - 0.0
12/10:40am 8.6 6.3 5.0 78 1.7 N 6 7 3 4 1016.3 - 0.0
12/10:30am 8.3 5.9 5.3 81 1.4 N 7 9 4 5 1016.4 - 0.0
12/10:20am 7.8 6.4 5.3 84 1.2 N 2 4 1 2 1016.4 - 0.0
12/10:10am 7.0 5.5 5.0 87 0.9 WSW 2 4 1 2 1016.7 - 0.0
12/10:00am 6.6 5.1 5.0 89 0.7 NNW 2 4 1 2 1016.9 - 0.0
12/09:50am 6.4 4.8 4.6 88 0.8 E 2 6 1 3 1016.9 - 0.0
12/09:40am 6.4 4.8 4.3 86 1.0 N 2 7 1 4 1016.9 - 0.0
12/09:30am 6.1 3.4 3.8 85 1.0 NE 7 7 4 4 1017.0 - 0.0
12/09:20am 6.1 3.7 4.1 87 0.9 NNE 6 9 3 5 1017.1 - 0.0
12/09:10am 6.3 3.7 4.2 86 1.0 NNE 7 11 4 6 1017.2 - 0.0
12/09:00am 5.8 3.2 4.3 90 0.7 NNE 7 11 4 6 1017.1 - 0.0
12/08:50am 6.4 4.0 4.4 87 0.9 N 6 9 3 5 1017.0 - 0.0
12/08:40am 6.9 4.3 4.4 84 1.1 N 7 9 4 5 1017.0 - 0.0
12/08:30am 7.1 4.8 4.7 85 1.1 NE 6 9 3 5 1017.0 - 0.0
12/08:20am 6.2 4.1 4.0 86 1.0 NNE 4 9 2 5 1017.0 - 0.0
12/08:10am 5.6 3.5 4.1 90 0.7 ENE 4 6 2 3 1017.0 - 0.0
12/08:00am 5.3 3.9 3.7 89 0.7 CALM 0 2 0 1 1017.0 - 0.0
12/07:50am 5.4 4.0 3.7 89 0.8 CALM 0 2 0 1 1016.9 - 0.0
12/07:40am 5.5 3.3 3.5 87 0.9 ENE 4 6 2 3 1016.7 - 0.0
12/07:30am 5.3 3.5 3.2 86 0.9 NNE 2 6 1 3 1016.8 - 0.0
12/07:20am 5.0 2.8 3.2 88 0.8 NE 4 6 2 3 1016.8 - 0.0
12/07:10am 4.8 2.5 3.0 88 0.8 NE 4 4 2 2 1016.8 - 0.0
12/07:00am 4.6 1.9 2.9 89 0.7 NNE 6 6 3 3 1016.8 - 0.0
12/06:50am 4.1 1.9 3.1 93 0.4 ENE 4 6 2 3 1016.8 - 0.0
12/06:40am 3.9 1.6 2.9 93 0.4 S 4 6 2 3 1016.7 - 0.0
12/06:30am 4.5 2.6 3.0 90 0.6 W 2 4 1 2 1016.8 - 0.0
12/06:20am 4.9 2.3 3.1 88 0.8 NE 6 7 3 4 1016.5 - 0.0
12/06:10am 4.2 1.9 3.0 92 0.5 NNE 4 9 2 5 1016.5 - 0.0
12/06:00am 4.7 2.5 3.1 89 0.7 NNE 4 6 2 3 1016.6 - 0.0
12/05:50am 4.7 2.5 3.2 90 0.7 NNE 4 7 2 4 1016.5 - 0.0
12/05:40am 5.5 2.9 3.2 85 1.0 NE 6 9 3 5 1016.6 - 0.0
12/05:30am 5.7 3.5 3.4 85 1.0 NE 4 9 2 5 1016.5 - 0.0
12/05:20am 5.9 3.1 3.2 83 1.2 NE 7 9 4 5 1016.7 - 0.0
12/05:10am 5.8 3.0 3.4 84 1.1 NNE 7 9 4 5 1016.8 - 0.0
12/05:00am 6.4 3.8 3.4 81 1.3 NE 6 9 3 5 1016.7 - 0.0
12/04:50am 6.2 3.4 3.3 82 1.3 NE 7 11 4 6 1016.7 - 0.0
12/04:40am 6.1 3.3 3.2 82 1.3 NE 7 11 4 6 1016.7 - 0.0
12/04:30am 6.0 3.9 3.7 85 1.0 NE 4 7 2 4 1016.5 - 0.0
12/04:20am 6.4 4.2 3.4 81 1.3 ENE 4 6 2 3 1016.6 - 0.0
12/04:10am 6.2 4.4 3.3 82 1.3 E 2 2 1 1 1016.7 - 0.0
12/04:00am 6.1 3.9 3.3 82 1.2 ENE 4 7 2 4 1016.7 - 0.0
12/03:50am 6.0 3.4 3.4 83 1.2 NNE 6 7 3 4 1016.8 - 0.0
12/03:40am 6.3 4.1 3.3 81 1.3 N 4 6 2 3 1016.9 - 0.0
12/03:30am 5.7 3.0 2.7 81 1.3 NNE 6 7 3 4 1016.9 - 0.0
12/03:20am 5.2 1.9 2.5 83 1.2 NE 9 9 5 5 1017.0 - 0.0
12/03:10am 5.1 2.2 2.5 83 1.1 NE 7 9 4 5 1017.0 - 0.0
12/03:00am 4.1 1.7 2.3 88 0.8 ENE 4 7 2 4 1016.9 - 0.0
12/02:50am 3.9 2.4 2.8 92 0.5 CALM 0 4 0 2 1017.1 - 0.0
12/02:40am 4.1 2.6 2.8 91 0.6 CALM 0 4 0 2 1017.0 - 0.0
12/02:30am 4.8 2.1 2.7 86 0.9 NNE 6 9 3 5 1016.9 - 0.0
12/02:20am 4.6 2.7 2.8 88 0.8 E 2 4 1 2 1017.1 - 0.0
12/02:10am 4.6 1.9 2.7 87 0.8 NE 6 7 3 4 1017.4 - 0.0
12/02:00am 4.3 2.0 2.8 90 0.6 NE 4 6 2 3 1017.5 - 0.0
12/01:50am 4.2 2.3 2.9 91 0.6 SW 2 6 1 3 1017.6 - 0.0
12/01:40am 4.5 1.9 3.0 90 0.6 SW 6 11 3 6 1017.5 - 0.0
12/01:30am 4.9 3.1 3.2 89 0.7 SW 2 7 1 4 1017.8 - 0.0
12/01:20am 5.7 3.9 3.2 84 1.1 WNW 2 6 1 3 1018.0 - 0.0
12/01:10am 6.4 4.5 3.0 79 1.5 N 2 4 1 2 1018.0 - 0.0
12/01:00am 6.6 4.0 3.0 78 1.6 NNW 6 7 3 4 1018.3 - 0.0
12/12:50am 6.2 3.9 2.5 77 1.6 NW 4 7 2 4 1018.4 - 0.0
12/12:40am 5.8 3.5 2.8 81 1.3 WNW 4 7 2 4 1018.5 - 0.0
12/12:30am 6.1 3.5 3.1 81 1.3 N 6 7 3 4 1018.4 - 0.0
12/12:20am 6.4 3.7 2.7 77 1.6 NNW 6 7 3 4 1018.5 - 0.0
12/12:10am 6.1 3.8 2.6 78 1.5 N 4 7 2 4 1018.3 - 0.0
12/12:00am 6.0 4.1 2.8 80 1.4 NNE 2 4 1 2 1018.4 - 0.0
 
Date/Time
EST
Temp
°C
App
Temp
°C
Dew
Point
°C
Rel
Hum
%
Delta-T
°C
Wind Press
QNH
hPa
Press
MSL
hPa
Rain since
9am
mm
Dir  Spd
km/h
Gust
km/h
Spd
kts
Gust
kts
11/11:50pm 6.1 3.5 3.2 82 1.3 N 6 7 3 4 1018.4 - 0.0
11/11:40pm 7.3 5.0 2.5 71 2.1 WNW 4 6 2 3 1018.4 - 0.0
11/11:30pm 7.2 4.5 2.5 72 2.1 NNW 6 7 3 4 1018.6 - 0.0
11/11:20pm 6.8 4.4 2.3 73 2.0 W 4 7 2 4 1018.9 - 0.0
11/11:10pm 5.6 3.2 2.0 77 1.5 SSE 4 7 2 4 1018.6 - 0.0
11/11:00pm 5.4 3.2 3.3 86 0.9 SSW 4 6 2 3 1018.5 - 0.0
11/10:50pm 5.7 3.1 3.1 83 1.1 SSW 6 6 3 3 1018.5 - 0.0
11/10:40pm 5.0 2.4 3.1 87 0.8 S 6 7 3 4 1018.3 - 0.0
11/10:30pm 4.5 1.9 3.3 92 0.5 SSW 6 7 3 4 1018.7 - 0.0
11/10:20pm 4.4 2.2 3.4 93 0.4 SSE 4 7 2 4 1018.7 - 0.0
11/10:10pm 4.3 2.5 3.2 93 0.5 SSW 2 4 1 2 1018.7 - 0.0
11/10:00pm 4.7 2.5 3.2 90 0.7 E 4 7 2 4 1018.6 - 0.0
11/09:50pm 4.4 2.2 3.4 93 0.4 S 4 6 2 3 1018.4 - 0.0
11/09:40pm 4.6 3.2 3.5 93 0.5 CALM 0 4 0 2 1019.0 - 0.0
11/09:30pm 5.0 2.8 3.4 89 0.7 WSW 4 6 2 3 1019.1 - 0.0
11/09:20pm 4.8 2.3 3.5 91 0.6 S 6 6 3 3 1018.9 - 0.0
11/09:10pm 4.4 1.9 3.5 94 0.4 S 6 7 3 4 1018.9 - 0.0
11/09:00pm 4.4 1.8 3.4 93 0.4 SSW 6 6 3 3 1019.0 - 0.0
11/08:50pm 4.4 1.9 3.5 94 0.4 S 6 7 3 4 1018.8 - 0.0
11/08:40pm 4.1 1.9 3.3 94 0.3 SSW 4 6 2 3 1018.8 - 0.0
11/08:30pm 4.2 2.0 3.3 94 0.4 SW 4 6 2 3 1018.9 - 0.0
11/08:20pm 4.1 2.3 3.3 94 0.3 S 2 4 1 2 1018.7 - 0.0
11/08:10pm 4.2 2.7 3.2 93 0.4 CALM 0 4 0 2 1019.0 - 0.0
11/08:00pm 4.2 2.8 3.3 94 0.4 CALM 0 2 0 1 1019.0 - 0.0
11/07:50pm 4.4 2.6 3.3 93 0.5 ESE 2 4 1 2 1019.1 - 0.0
11/07:40pm 4.3 2.4 3.1 92 0.5 E 2 4 1 2 1019.1 - 0.0
11/07:30pm 4.4 2.6 3.4 93 0.4 S 2 4 1 2 1019.1 - 0.0
11/07:20pm 4.6 2.4 3.3 91 0.6 ESE 4 6 2 3 1019.2 - 0.0
11/07:10pm 4.8 2.1 3.5 91 0.6 ESE 7 7 4 4 1019.2 - 0.0
11/07:00pm 5.0 2.3 3.5 90 0.7 - 7 11 4 6 1019.1 - 0.0
11/06:50pm 5.0 2.3 3.5 90 0.7 - 7 11 4 6 1019.1 - 0.0
11/06:40pm 5.1 2.4 3.6 90 0.7 ENE 7 9 4 5 1019.1 - 0.0
11/06:30pm 5.3 2.6 3.6 89 0.8 ENE 7 9 4 5 1019.3 - 0.0
11/06:20pm 5.3 2.6 3.5 88 0.8 ENE 7 9 4 5 1019.2 - 0.0
11/06:10pm 5.3 2.2 3.6 89 0.8 ENE 9 11 5 6 1019.0 - 0.0
11/06:00pm 5.3 2.2 3.6 89 0.8 ENE 9 11 5 6 1018.9 - 0.0
11/05:50pm 5.4 2.3 3.5 87 0.8 ENE 9 11 5 6 1018.9 - 0.0
11/05:40pm 5.5 2.4 3.6 87 0.8 ENE 9 11 5 6 1018.9 - 0.0
11/05:30pm 5.8 2.7 3.6 86 1.0 NE 9 13 5 7 1018.7 - 0.0
11/05:20pm 5.9 2.8 3.7 86 1.0 NE 9 11 5 6 1018.8 - 0.0
11/05:10pm 6.1 3.0 3.8 85 1.0 NE 9 11 5 6 1018.8 - 0.0
11/05:00pm 6.6 3.2 3.9 83 1.2 N 11 13 6 7 1018.7 - 0.0
11/04:50pm 7.5 4.5 4.3 80 1.5 N 9 13 5 7 1018.6 - 0.0
11/04:40pm 7.9 4.1 4.1 77 1.7 NNE 13 15 7 8 1018.6 - 0.0
11/04:30pm 8.4 5.1 4.3 75 1.9 NNE 11 13 6 7 1018.6 - 0.0
11/04:20pm 8.3 5.3 4.1 75 1.9 N 9 11 5 6 1018.5 - 0.0
11/04:10pm 7.8 4.8 4.0 77 1.7 N 9 13 5 7 1018.5 - 0.0
11/04:00pm 8.1 4.3 4.1 76 1.8 N 13 15 7 8 1018.5 - 0.0
11/03:50pm 9.3 6.4 4.8 73 2.1 N 9 11 5 6 1018.4 - 0.0
11/03:40pm 9.4 6.9 4.8 73 2.2 N 7 11 4 6 1018.5 - 0.0
11/03:30pm 9.8 6.9 4.9 71 2.3 N 9 11 5 6 1018.4 - 0.0
11/03:20pm 9.5 6.6 4.8 72 2.2 NNW 9 13 5 7 1018.5 - 0.0
11/03:10pm 9.1 6.2 4.8 74 2.0 N 9 11 5 6 1018.7 - 0.0
11/03:00pm 9.4 6.9 4.7 72 2.2 N 7 9 4 5 1018.7 - 0.0
11/02:50pm 8.9 5.9 4.2 72 2.2 N 9 11 5 6 1018.8 - 0.0
11/02:40pm 8.7 5.3 4.1 73 2.1 N 11 15 6 8 1018.9 - 0.0
11/02:30pm 8.7 5.3 3.9 72 2.2 N 11 13 6 7 1019.1 - 0.0
11/02:20pm 8.1 4.8 4.3 77 1.8 NNE 11 17 6 9 1019.2 - 0.0
11/02:10pm 9.0 6.0 4.2 72 2.2 N 9 11 5 6 1019.3 - 0.0
11/02:00pm 8.3 5.4 4.4 76 1.8 NNE 9 13 5 7 1019.3 - 0.0
11/01:50pm 8.7 5.8 4.6 75 1.9 N 9 11 5 6 1019.4 - 0.0
11/01:40pm 8.8 6.0 3.4 69 2.5 N 7 11 4 6 1019.5 - 0.0
11/01:30pm 7.9 4.4 3.5 74 2.0 N 11 13 6 7 1019.7 - 0.0
11/01:20pm 8.0 4.5 3.6 74 2.0 N 11 15 6 8 1019.8 - 0.0
11/01:10pm 7.5 4.1 4.0 78 1.6 NNE 11 15 6 8 1020.0 - 0.0
11/01:00pm 8.6 5.5 3.5 70 2.3 N 9 13 5 7 1020.1 - 0.0
11/12:50pm 7.9 4.7 3.1 72 2.1 NNE 9 15 5 8 1020.3 - 0.0
11/12:40pm 7.5 3.2 3.4 75 1.8 N 15 15 8 8 1020.5 - 0.0
11/12:30pm 7.7 4.2 3.6 75 1.9 N 11 13 6 7 1020.6 - 0.0
11/12:20pm 7.9 4.4 3.3 73 2.1 N 11 15 6 8 1020.9 - 0.0
11/12:10pm 7.4 3.8 3.0 73 2.0 N 11 13 6 7 1021.1 - 0.0
11/12:00pm 6.8 2.4 2.5 74 1.9 NNE 15 17 8 9 1021.3 - 0.0
11/11:40am 7.4 3.4 2.9 73 2.0 N 13 15 7 8 1021.5 - 0.0
11/11:30am 7.8 4.4 3.9 76 1.8 N 11 15 6 8 1021.6 - 0.0
11/11:20am 8.5 5.0 3.7 72 2.2 N 11 15 6 8 1021.8 - 0.0
11/11:10am 8.1 4.6 3.6 73 2.0 N 11 13 6 7 1021.8 - 0.0
11/11:00am 8.0 4.0 2.8 70 2.3 N 13 15 7 8 1021.8 - 0.0
11/10:50am 8.2 4.3 3.3 71 2.2 N 13 15 7 8 1022.0 - 0.0
11/10:40am 7.6 4.0 3.0 72 2.0 N 11 15 6 8 1022.1 - 0.0
11/10:30am 7.0 3.3 2.2 71 2.1 NNE 11 15 6 8 1022.2 - 0.0
11/10:20am 7.1 3.1 2.8 74 1.9 N 13 15 7 8 1022.3 - 0.0
11/10:10am 7.0 3.2 2.0 70 2.2 NNE 11 13 6 7 1022.2 - 0.0
11/10:00am 7.1 3.4 2.2 71 2.1 NNE 11 13 6 7 1022.3 - 0.0
11/09:50am 7.3 4.3 2.1 69 2.3 N 7 11 4 6 1022.4 - 0.0
11/09:40am 6.8 3.4 1.9 71 2.1 NNE 9 11 5 6 1022.3 - 0.0
11/09:30am 7.1 4.3 1.9 69 2.2 N 6 7 3 4 1022.5 - 0.0
11/09:20am 6.8 4.1 2.7 75 1.8 N 6 7 3 4 1022.6 - 0.0
11/09:10am 6.6 3.8 2.0 72 2.0 N 6 9 3 5 1022.6 - 0.0
11/09:00am 6.1 3.6 1.8 74 1.8 ENE 4 6 2 3 1022.5 - 0.0
11/08:50am 5.7 3.8 0.8 71 2.0 CALM 0 4 0 2 1022.5 - 0.0
11/08:40am 5.6 3.4 0.9 72 2.0 S 2 2 1 1 1022.5 - 0.0
11/08:30am 5.3 3.1 0.9 73 1.8 SSE 2 4 1 2 1022.3 - 0.0
11/08:20am 4.7 2.0 0.6 75 1.7 S 4 4 2 2 1022.4 - 0.0
11/08:10am 4.4 1.4 0.5 76 1.6 S 6 6 3 3 1022.3 - 0.0
11/08:00am 4.2 1.5 0.4 76 1.5 S 4 4 2 2 1022.3 - 0.0
11/07:50am 3.7 1.0 0.2 78 1.4 S 4 4 2 2 1022.3 - 0.0
11/07:40am 3.4 1.1 0.2 79 1.3 SSW 2 4 1 2 1022.2 - 0.0
11/07:30am 2.9 0.9 -0.1 81 1.2 CALM 0 2 0 1 1022.1 - 0.0
11/07:20am 2.0 -0.4 -0.3 85 0.9 S 2 2 1 1 1021.9 - 0.0
11/07:10am 1.5 -0.9 -0.4 87 0.7 SW 2 4 1 2 1021.8 - 0.0
11/07:00am 1.4 -0.7 -0.5 87 0.7 CALM 0 0 0 0 1021.8 - 0.0
11/06:50am 1.1 -1.0 -0.5 89 0.6 CALM 0 0 0 0 1021.9 - 0.0
11/06:40am 1.1 -1.0 -0.7 88 0.7 CALM 0 0 0 0 1022.0 - 0.0
11/06:30am 1.5 -0.9 -0.5 86 0.8 SSW 2 4 1 2 1022.0 - 0.0
11/06:20am 1.4 -0.7 -0.5 87 0.7 CALM 0 2 0 1 1021.9 - 0.0
11/06:10am 1.2 -0.9 -0.6 88 0.7 CALM 0 0 0 0 1022.0 - 0.0
11/06:00am 1.3 -0.8 -0.5 88 0.7 CALM 0 0 0 0 1022.0 - 0.0
11/05:50am 1.4 -1.0 -0.4 88 0.7 SW 2 4 1 2 1021.9 - 0.0
11/05:40am 1.5 -0.5 -0.3 88 0.7 CALM 0 0 0 0 1021.8 - 0.0
11/05:30am 1.7 -0.3 -0.4 86 0.8 CALM 0 2 0 1 1021.7 - 0.0
11/05:20am 1.9 -0.9 -0.5 84 0.9 S 4 4 2 2 1021.7 - 0.0
11/05:10am 1.8 -1.0 -0.3 86 0.8 SSW 4 4 2 2 1021.5 - 0.0
11/05:00am 2.0 -0.8 -0.3 85 0.9 S 4 6 2 3 1021.4 - 0.0
11/04:50am 1.9 -1.3 -0.3 85 0.9 S 6 7 3 4 1021.4 - 0.0
11/04:40am 1.8 -0.6 -0.1 87 0.7 S 2 4 1 2 1021.4 - 0.0
11/04:30am 1.8 -1.0 -0.1 87 0.7 SSW 4 4 2 2 1021.3 - 0.0
11/04:20am 1.8 -0.9 0.0 88 0.7 SSW 4 4 2 2 1021.3 - 0.0
11/04:10am 1.7 -1.0 0.0 88 0.7 S 4 4 2 2 1021.3 - 0.0
11/04:00am 1.7 -0.7 0.0 88 0.7 SSW 2 4 1 2 1021.4 - 0.0
11/03:50am 1.6 -0.4 -0.1 88 0.7 CALM 0 0 0 0 1021.4 - 0.0
11/03:40am 1.8 -0.6 -0.1 87 0.7 S 2 4 1 2 1021.5 - 0.0
11/03:30am 1.8 -0.6 -0.1 87 0.7 SSW 2 2 1 1 1021.7 - 0.0
11/03:20am 1.8 -0.2 -0.1 87 0.7 CALM 0 0 0 0 1021.8 - 0.0
11/03:10am 1.9 -0.1 -0.1 87 0.8 CALM 0 0 0 0 1021.8 - 0.0
11/03:00am 2.0 0.0 0.0 87 0.8 CALM 0 0 0 0 1022.1 - 0.0
11/02:50am 2.2 0.2 0.0 85 0.9 CALM 0 0 0 0 1022.2 - 0.0
11/02:40am 2.3 0.3 0.0 85 0.9 CALM 0 0 0 0 1022.5 - 0.0
11/02:30am 2.4 0.4 0.0 84 0.9 CALM 0 0 0 0 1022.6 - 0.0
11/02:20am 2.5 0.5 0.1 84 0.9 CALM 0 0 0 0 1022.6 - 0.0
11/02:10am 2.3 0.3 0.1 85 0.9 CALM 0 2 0 1 1022.7 - 0.0
11/02:00am 2.4 0.4 0.0 84 0.9 CALM 0 0 0 0 1022.8 - 0.0
11/01:50am 2.6 0.6 0.2 84 0.9 CALM 0 4 0 2 1022.9 - 0.0
11/01:40am 2.7 0.4 0.2 83 1.0 NE 2 4 1 2 1023.0 - 0.0
11/01:30am 2.7 0.0 0.1 83 1.0 NE 4 4 2 2 1023.1 - 0.0
11/01:20am 2.7 0.4 0.3 84 1.0 NNE 2 4 1 2 1023.2 - 0.0
11/01:10am 2.7 0.0 0.2 83 1.0 NE 4 6 2 3 1023.1 - 0.0
11/01:00am 2.6 0.7 0.4 85 0.9 CALM 0 0 0 0 1023.1 - 0.0
11/12:50am 2.8 0.9 0.3 84 1.0 CALM 0 2 0 1 1023.0 - 0.0
11/12:40am 2.7 0.8 0.4 85 0.9 CALM 0 2 0 1 1022.8 - 0.0
11/12:30am 2.7 0.8 0.6 86 0.8 CALM 0 0 0 0 1022.9 - 0.0
11/12:20am 2.8 0.9 0.4 84 1.0 CALM 0 0 0 0 1022.9 - 0.0
11/12:10am 2.8 0.5 0.5 85 0.9 S 2 2 1 1 1023.0 - 0.0
11/12:00am 2.7 0.8 0.7 87 0.8 CALM 0 2 0 1 1023.0 - 0.0
 
Date/Time
EST
Temp
°C
App
Temp
°C
Dew
Point
°C
Rel
Hum
%
Delta-T
°C
Wind Press
QNH
hPa
Press
MSL
hPa
Rain since
9am
mm
Dir  Spd
km/h
Gust
km/h
Spd
kts
Gust
kts
10/11:50pm 2.9 0.2 0.6 85 0.9 S 4 6 2 3 1023.1 - 0.0
10/11:40pm 2.9 -0.1 0.6 85 0.9 S 6 7 3 4 1023.0 - 0.0
10/11:30pm 2.7 0.1 0.7 87 0.8 SSW 4 6 2 3 1023.1 - 0.0
10/11:20pm 2.9 1.0 0.7 85 0.9 CALM 0 2 0 1 1023.0 - 0.0
10/11:10pm 3.1 1.2 0.6 84 1.0 CALM 0 2 0 1 1022.9 - 0.0
10/11:00pm 3.0 0.8 0.8 85 0.9 SSW 2 4 1 2 1022.9 - 0.0
10/10:50pm 3.0 0.7 0.7 85 0.9 SSW 2 4 1 2 1022.9 - 0.0
10/10:40pm 3.1 0.9 0.8 85 0.9 SSW 2 4 1 2 1022.8 - 0.0
10/10:30pm 3.1 0.8 0.7 84 1.0 S 2 4 1 2 1022.9 - 0.0
10/10:20pm 3.2 0.9 0.7 84 1.0 S 2 4 1 2 1022.8 - 0.0
10/10:10pm 3.1 0.9 0.8 85 0.9 SSE 2 4 1 2 1022.8 - 0.0
10/10:00pm 3.1 0.9 0.9 85 0.9 SW 2 4 1 2 1023.0 - 0.0
10/09:50pm 3.2 1.3 0.8 84 1.0 CALM 0 0 0 0 1023.0 - 0.0
10/09:40pm 3.4 1.6 0.9 84 1.0 CALM 0 2 0 1 1023.0 - 0.0
10/09:30pm 3.5 1.7 1.1 84 1.0 CALM 0 0 0 0 1023.0 - 0.0
10/09:20pm 3.7 1.5 1.1 83 1.1 ENE 2 4 1 2 1023.1 - 0.0
10/09:10pm 3.9 1.7 1.2 82 1.1 NNE 2 6 1 3 1022.9 - 0.0
10/09:00pm 4.1 1.1 1.1 81 1.2 NE 6 7 3 4 1022.9 - 0.0
10/08:50pm 4.0 1.0 1.1 81 1.2 NE 6 7 3 4 1022.8 - 0.0
10/08:40pm 4.1 1.5 1.0 80 1.3 NNE 4 6 2 3 1022.8 - 0.0
10/08:30pm 4.3 2.1 1.0 79 1.4 NNE 2 2 1 1 1022.7 - 0.0
10/08:20pm 4.6 2.4 1.0 77 1.5 NE 2 4 1 2 1022.8 - 0.0
10/08:10pm 4.9 2.3 0.9 75 1.7 SSE 4 9 2 5 1022.7 - 0.0
10/08:00pm 5.1 2.0 0.4 71 1.9 S 6 9 3 5 1022.6 - 0.0
10/07:50pm 5.0 2.8 0.8 74 1.7 SW 2 4 1 2 1022.7 - 0.0
10/07:40pm 5.2 2.5 0.6 72 1.9 S 4 6 2 3 1022.6 - 0.0
10/07:30pm 5.2 2.5 0.4 71 2.0 S 4 4 2 2 1022.6 - 0.0
10/07:20pm 5.1 2.5 0.8 74 1.8 S 4 4 2 2 1022.5 - 0.0
10/07:10pm 5.0 2.4 1.2 76 1.6 SSW 4 4 2 2 1022.6 - 0.0
10/07:00pm 5.3 3.2 1.4 76 1.6 S 2 4 1 2 1022.6 - 0.0
10/06:50pm 5.4 3.2 1.2 74 1.8 S 2 4 1 2 1022.5 - 0.0
10/06:40pm 5.4 2.5 1.3 75 1.7 SSE 6 6 3 3 1022.4 - 0.0
10/06:30pm 5.4 2.9 1.5 76 1.6 S 4 7 2 4 1022.3 - 0.0
10/06:10pm 5.7 3.5 1.2 73 1.9 S 2 6 1 3 1022.0 - 0.0
10/06:00pm 5.8 3.2 1.1 72 2.0 S 4 6 2 3 1021.9 - 0.0
10/05:50pm 6.1 3.9 0.8 69 2.2 ESE 2 4 1 2 1021.9 - 0.0
10/05:40pm 6.5 4.2 0.7 66 2.4 S 2 4 1 2 1021.7 - 0.0
10/05:30pm 6.7 4.2 1.5 69 2.2 SSW 4 6 2 3 1021.6 - 0.0
10/05:20pm 7.0 3.5 1.2 66 2.5 SSE 9 15 5 8 1021.4 - 0.0
10/05:10pm 7.3 3.4 0.9 64 2.7 SE 11 13 6 7 1021.3 - 0.0
10/04:50pm 8.8 4.2 1.5 60 3.2 ESE 15 19 8 10 1021.1 - 0.0
10/04:40pm 9.4 5.1 1.3 57 3.5 E 13 15 7 8 1021.2 - 0.0
10/04:30pm 9.6 5.3 1.3 56 3.6 E 13 17 7 9 1021.1 - 0.0
10/04:10pm 10.0 6.1 1.4 55 3.8 ESE 11 19 6 10 1020.9 - 0.0
10/04:00pm 10.1 5.9 1.7 56 3.7 ESE 13 19 7 10 1020.8 - 0.0
10/03:50pm 10.1 5.9 1.6 55 3.7 ESE 13 15 7 8 1020.8 - 0.0
10/03:30pm 10.2 6.0 1.9 56 3.7 ESE 13 17 7 9 1020.4 - 0.0
10/02:30pm 10.7 7.2 1.1 51 4.2 - 9 13 5 7 1020.5 - 0.0
10/01:20pm 10.4 6.8 0.7 51 4.2 ESE 9 15 5 8 1021.0 - 0.0
10/01:10pm 10.7 7.5 1.0 51 4.2 E 7 19 4 10 1021.1 - 0.0
10/01:00pm 10.5 6.9 0.7 50 4.2 ESE 9 13 5 7 1021.0 - 0.0
10/12:50pm 10.4 6.4 0.8 51 4.2 ESE 11 19 6 10 1021.2 - 0.0
10/12:40pm 10.3 6.3 0.5 50 4.2 ESE 11 15 6 8 1021.1 - 0.0
10/12:20pm 9.8 5.5 0.8 53 3.9 ESE 13 20 7 11 1021.5 - 0.0
10/12:10pm 9.9 5.9 0.5 52 4.0 ESE 11 17 6 9 1021.6 - 0.0
10/11:50am 9.4 4.2 -0.1 51 4.0 SE 17 24 9 13 1021.7 - 0.0
10/11:40am 9.7 5.2 -0.2 50 4.2 SSE 13 26 7 14 1021.8 - 0.0
10/11:30am 9.4 5.7 0.2 52 3.9 S 9 13 5 7 1021.7 - 0.0
10/11:20am 9.1 5.5 0.3 54 3.7 SSE 9 17 5 9 1021.9 - 0.0
10/11:10am 8.6 4.7 1.1 59 3.2 SE 11 17 6 9 1022.1 - 0.0
10/11:00am 8.4 4.4 0.5 57 3.3 SE 11 17 6 9 1022.0 - 0.0
10/10:50am 8.3 5.2 1.4 62 3.0 SW 7 15 4 8 1022.1 - 0.0
10/10:40am 8.7 5.2 1.4 60 3.2 SSW 9 20 5 11 1022.1 - 0.0
10/10:20am 8.3 3.6 0.8 59 3.2 S 15 24 8 13 1022.1 - 0.0
10/10:10am 8.6 4.5 0.1 55 3.6 S 11 20 6 11 1022.1 - 0.0
10/10:00am 8.3 4.2 -0.1 55 3.5 S 11 20 6 11 1021.9 - 0.0
10/09:50am 8.3 4.7 0.9 59 3.2 ESE 9 17 5 9 1021.8 - 0.0
10/09:30am 7.2 2.2 -0.9 56 3.3 SSW 15 28 8 15 1021.5 - 0.0
10/09:20am 6.9 1.2 -0.7 58 3.1 SSW 19 28 10 15 1021.3 - 0.0
10/09:10am 7.0 2.1 -0.8 57 3.2 SSW 15 26 8 14 1021.4 - 0.0
10/08:50am 6.6 0.8 -0.4 61 2.8 SSW 20 28 11 15 1020.9 - 5.4
10/08:40am 6.6 1.4 -0.2 62 2.8 S 17 24 9 13 1020.8 - 5.4
10/08:20am 6.4 1.9 -0.5 61 2.8 S 13 19 7 10 1020.9 - 5.4
10/08:10am 6.2 0.6 -0.3 63 2.6 S 19 24 10 13 1020.7 - 5.4
10/07:50am 6.0 -0.2 -0.6 62 2.7 S 22 30 12 16 1020.5 - 5.4
10/07:40am 6.0 1.1 -0.3 64 2.6 S 15 24 8 13 1020.4 - 5.4
10/07:20am 5.9 1.8 -0.5 63 2.6 S 11 20 6 11 1020.2 - 5.4
10/07:10am 5.7 2.4 0.0 67 2.3 SSW 7 15 4 8 1020.2 - 5.4
10/07:00am 5.8 1.8 0.3 68 2.3 S 11 15 6 8 1020.0 - 5.4
10/06:50am 5.9 1.9 0.3 67 2.3 S 11 15 6 8 1019.9 - 5.4
10/06:40am 5.8 1.0 0.3 68 2.3 SSW 15 26 8 14 1019.7 - 5.4
10/06:30am 5.9 1.1 0.5 68 2.2 SSW 15 19 8 10 1019.3 - 5.4
10/06:20am 6.1 1.7 0.3 66 2.4 SSW 13 24 7 13 1019.2 - 5.4
10/06:10am 6.2 1.9 0.7 68 2.3 S 13 26 7 14 1018.8 - 5.4
10/06:00am 6.0 2.4 0.8 69 2.2 SSW 9 15 5 8 1018.9 - 5.4
10/05:50am 6.0 3.1 1.4 72 1.9 S 6 15 3 8 1018.7 - 5.4
10/05:40am 6.2 2.7 1.4 71 2.0 SW 9 13 5 7 1018.6 - 5.4
10/05:30am 5.9 2.4 1.2 72 2.0 SW 9 15 5 8 1018.3 - 5.4
10/05:20am 5.8 2.7 1.4 73 1.9 WSW 7 19 4 10 1018.0 - 5.4
10/05:10am 5.9 2.8 1.5 73 1.9 SSW 7 11 4 6 1018.2 - 5.4
10/05:00am 6.0 1.8 1.4 72 1.9 SSW 13 19 7 10 1018.0 - 5.4
10/04:50am 6.0 2.5 1.3 72 2.0 S 9 19 5 10 1017.7 - 5.4
10/04:40am 6.1 2.6 1.4 72 2.0 SSW 9 19 5 10 1017.8 - 5.4
10/04:30am 6.1 2.6 1.2 71 2.1 S 9 22 5 12 1017.2 - 5.4
10/04:20am 5.9 1.2 1.2 72 2.0 SSW 15 26 8 14 1017.5 - 5.4
10/04:10am 6.0 1.8 1.7 74 1.8 SSW 13 22 7 12 1017.4 - 5.4
10/04:00am 6.0 1.3 1.2 71 2.0 S 15 22 8 12 1017.7 - 5.4
10/03:50am 6.0 1.8 1.4 72 1.9 SSW 13 20 7 11 1017.6 - 5.4
10/03:40am 6.3 2.4 1.1 69 2.2 S 11 19 6 10 1017.8 - 5.4
10/03:30am 6.3 3.1 0.5 66 2.4 SW 7 13 4 7 1017.5 - 5.4
10/03:20am 6.4 2.1 0.7 67 2.4 SSE 13 22 7 12 1017.4 - 5.4
10/03:10am 6.4 2.8 0.5 66 2.4 SE 9 15 5 8 1017.5 - 5.4
10/03:00am 6.4 3.1 0.0 63 2.6 S 7 17 4 9 1017.6 - 5.4
10/02:50am 6.6 2.6 0.4 64 2.6 S 11 24 6 13 1017.7 - 5.4
10/02:40am 6.8 1.7 0.5 64 2.6 S 17 28 9 15 1017.7 - 5.4
10/02:30am 6.8 2.8 0.4 64 2.7 S 11 17 6 9 1017.6 - 5.4
10/02:20am 6.7 2.4 0.9 66 2.4 S 13 24 7 13 1017.3 - 5.4
10/02:10am 6.7 3.3 1.7 70 2.1 S 9 15 5 8 1017.6 - 5.4
10/02:00am 6.3 2.6 2.1 74 1.8 S 11 20 6 11 1017.6 - 5.4
10/01:50am 6.2 2.1 2.3 76 1.7 SSW 13 17 7 9 1017.4 - 5.4
10/01:40am 6.2 2.1 2.3 76 1.7 SSW 13 19 7 10 1017.2 - 5.4
10/01:30am 6.1 1.7 2.8 79 1.4 SSW 15 26 8 14 1017.3 - 5.4
10/01:20am 5.9 1.5 2.9 81 1.3 SSW 15 20 8 11 1017.3 - 5.4
10/01:10am 5.7 0.6 3.2 84 1.1 S 19 26 10 14 1017.3 - 5.4
10/01:00am 6.0 2.6 3.9 86 0.9 S 11 19 6 10 1017.3 - 5.4
10/12:50am 6.4 2.9 3.5 82 1.3 S 11 20 6 11 1017.3 - 5.4
10/12:40am 6.8 1.7 2.9 76 1.7 S 19 26 10 14 1017.2 - 5.4
10/12:30am 7.0 2.6 2.5 73 2.0 SSW 15 24 8 13 1017.0 - 5.4
10/12:20am 6.8 1.9 2.3 73 2.0 S 17 20 9 11 1017.0 - 5.4
10/12:10am 6.7 1.3 2.6 75 1.8 SSW 20 26 11 14 1017.0 - 5.4
10/12:00am 6.9 2.1 2.6 74 1.9 S 17 28 9 15 1017.0 - 5.4
 
Date/Time
EST
Temp
°C
App
Temp
°C
Dew
Point
°C
Rel
Hum
%
Delta-T
°C
Wind Press
QNH
hPa
Press
MSL
hPa
Rain since
9am
mm
Dir  Spd
km/h
Gust
km/h
Spd
kts
Gust
kts
09/11:50pm 7.1 2.9 1.9 69 2.2 S 13 19 7 10 1016.8 - 5.4
09/11:40pm 7.2 2.7 2.1 70 2.2 S 15 24 8 13 1016.8 - 5.4
09/11:30pm 7.3 2.7 1.7 67 2.4 S 15 20 8 11 1016.5 - 5.4
09/11:20pm 7.2 3.0 1.5 67 2.4 SSW 13 22 7 12 1016.9 - 5.4
09/11:10pm 7.0 2.7 1.1 66 2.5 SSW 13 19 7 10 1016.7 - 5.4
09/11:00pm 7.1 2.8 1.2 66 2.5 S 13 17 7 9 1016.8 - 5.4
09/10:50pm 7.2 2.9 1.2 65 2.6 S 13 19 7 10 1016.7 - 5.4
09/10:40pm 7.3 2.3 1.6 67 2.4 S 17 32 9 17 1016.5 - 5.4
09/10:30pm 7.3 2.4 1.8 68 2.4 S 17 30 9 16 1016.4 - 5.4
09/10:20pm 7.2 2.3 1.8 68 2.3 S 17 24 9 13 1016.0 - 5.4
09/10:10pm 7.2 3.0 1.9 69 2.3 S 13 22 7 12 1016.4 - 5.4
09/10:00pm 7.2 3.0 1.9 69 2.3 S 13 17 7 9 1015.9 - 5.4
09/09:50pm 7.3 3.5 1.9 68 2.3 SSE 11 19 6 10 1016.1 - 5.4
09/09:40pm 7.2 3.4 1.9 69 2.3 SSW 11 19 6 10 1015.9 - 5.4
09/09:30pm 7.3 2.4 1.7 67 2.4 S 17 30 9 16 1016.0 - 5.4
09/09:20pm 7.3 3.4 1.4 66 2.5 S 11 22 6 12 1016.0 - 5.4
09/09:10pm 7.3 2.3 1.4 66 2.5 S 17 33 9 18 1015.8 - 5.4
09/09:00pm 7.3 3.1 1.4 66 2.5 SSW 13 26 7 14 1015.8 - 5.4
09/08:50pm 7.4 2.7 1.0 64 2.7 S 15 26 8 14 1015.7 - 5.4
09/08:40pm 7.4 2.7 0.9 63 2.7 S 15 24 8 13 1015.6 - 5.4
09/08:30pm 7.3 3.3 0.8 63 2.7 S 11 15 6 8 1015.3 - 5.4
09/08:20pm 7.2 3.2 0.6 63 2.8 SE 11 24 6 13 1015.4 - 5.4
09/08:10pm 7.2 3.0 1.4 66 2.5 SSW 13 22 7 12 1015.5 - 5.4
09/08:00pm 7.2 3.7 1.3 66 2.5 S 9 15 5 8 1015.3 - 5.4
09/07:50pm 7.4 4.0 1.7 67 2.5 SSW 9 19 5 10 1015.0 - 5.4
09/07:40pm 7.4 4.3 1.3 65 2.6 SSE 7 13 4 7 1015.3 - 5.4
09/07:30pm 7.4 4.0 1.8 67 2.4 SSW 9 15 5 8 1015.1 - 5.4

Other formats

Comma delimited format used in spreadsheet applications
http://www.bom.gov.au/fwo/IDN60801/IDN60801.99762.axf

JavaScript Object Notation format (JSON) in row-major order
http://www.bom.gov.au/fwo/IDN60801/IDN60801.99762.json

Data quality

Most of these data are generated automatically and are frequently updated. Quality checks on data are not normally performed. It is possible for incorrect values to appear. Refer to information at About Latest Weather Observations and please check the disclaimer before using these data.